Harvey, North Dakota
Current Conditions -  °F | °C
As of 4:35 AM on Saturday 22 Nov 2014 (Local Time) from K5H4 Reporting Station
Clear Clear  
Wind Chill: 18°   Ceiling: Unl
Heat Index: 25°   Visibility: 10mi
Dew Point: 25°   Wind: 6mph
Humidity: 100%   Direction: 240°WSW
Pressure: 29.59"   Gusts: NA
Location:  47.77°N, 99.94°W
Report Text: K5H4 221035Z AUTO 24005KT 10SM CLR M04/M04 A2959 RMK AO2
Loading
Personal Weather Stations






























Interactive Weather Map New forecast layout! Learn more

10-Day Weather Forecast

Advertisements
Track Severe Weather on mobile